メインページ
METAR-TAF:

METAR-TAF

空港 :

マリスカル・スクレ国際空港

キト, エクアドル

緯度: 0-06-48S, 経度: 78-21-31W, 海抜: 2400m

現時点の気象観測

当レポートは46分前の06:00(UTC)に作成
北/北東の風 2kt
気温 14°C
湿度 100%
気圧 1025 hPa
視程: 6000m
高度1000ftの曇り
散在霧

METAR: SEQM 200600Z 02002KT 6000 BCFG OVC010 14/14 Q1025 NOSIG RMK A3028

時間: 01:46 (06:46 UTC)

予報

当レポートは2時間21分前の04:25(UTC)に作成
予報は20日の 06時(UTC)から 21日の 06時(UTC)まで有効
変向風 3kt
視程: 4000m
高度500ftの曇り
散在霧
20日の 1200時(UTC)から
変向風 3kt
視程10km以上
高度2000ftの雲はほとんどない
高度10000ftの雲は散在している
20日の 1800時(UTC)から
の風 12kt
視程10km以上
高度3300ftの雲は散在している
高度10000ftの雲は散在している
20日の 20時(UTC)から 20日の 23時(UTC)まで一時的に
高度2600ftの雲はほとんどない, 積乱雲.
高度3000ftの千切れ雲あり
激しい雷雨, 雨
21日の 0000時(UTC)から
変向風 3kt
視程10km以上
高度3000ftの雲は散在している
高度10000ftの雲は散在している
21日の 03時(UTC)から 21日の 06時(UTC)まで一時的に
視程: 5000m
高度600ftの雲は散在している
高度2000ftの千切れ雲あり
散在霧

TAF: SEQM 200425Z 2006/2106 VRB03KT 4000 BCFG OVC005 FM201200 VRB03KT 9999 FEW020 SCT100 FM201800 36012KT 9999 SCT033 SCT100 TEMPO 2020/2023 TSRA FEW026CB BKN030 FM210000 VRB03KT 9999 SCT030 SCT100 TEMPO 2103/2106 5000 BCFG SCT006 BKN020 TX25/2019Z TN12/2011Z

4,000以上の空港の気象観測と天気予報(METAR報とTAF報)

利用可能な観測所は地図上に黄色い丸と赤い丸で示す。

丸の上にカーソルを重ねると観測所名を参照できる。

次にクリックすると気象観測と天気予報を参照できる。

マップの切り替え:黒色「×」印の緑ボタンをクリックして拡大、「-」印の緑ボタンをクリックして縮小、緑色の三角印をクリックして隣りの地図に切り替え


METAR-TAF: